createdAt,value
2017-12-10T00:00:44.146Z,12.57
2017-12-10T00:03:10.834Z,13.02
2017-12-10T00:05:37.674Z,13.23
2017-12-10T00:08:04.557Z,15.00
2017-12-10T00:10:31.468Z,10.95
2017-12-10T00:12:58.364Z,11.55
2017-12-10T00:15:25.543Z,14.48
2017-12-10T00:17:52.420Z,12.25
2017-12-10T00:20:19.271Z,14.15
2017-12-10T00:22:46.135Z,12.60
2017-12-10T00:25:12.975Z,13.65
2017-12-10T00:27:39.827Z,13.77
2017-12-10T00:30:06.700Z,16.65
2017-12-10T00:32:33.585Z,11.20
2017-12-10T00:35:00.431Z,14.52
2017-12-10T00:37:27.304Z,14.07
2017-12-10T00:39:54.160Z,20.47
2017-12-10T00:42:21.007Z,35.23
2017-12-10T00:44:47.897Z,14.73
2017-12-10T00:47:14.759Z,24.73
2017-12-10T00:49:41.591Z,14.23
2017-12-10T00:52:08.444Z,17.33
2017-12-10T00:54:35.331Z,18.80
2017-12-10T00:57:02.182Z,17.00
2017-12-10T00:59:29.084Z,13.27
2017-12-10T01:01:55.951Z,13.77
2017-12-10T01:04:22.810Z,16.47
2017-12-10T01:06:49.945Z,15.03
2017-12-10T01:09:16.912Z,14.80
2017-12-10T01:11:43.772Z,15.30
2017-12-10T01:14:10.664Z,13.10
2017-12-10T01:16:37.536Z,16.87
2017-12-10T01:19:04.440Z,16.77
2017-12-10T01:21:31.286Z,16.85
2017-12-10T01:23:58.182Z,15.05
2017-12-10T01:26:25.044Z,14.93
2017-12-10T01:28:51.961Z,14.35
2017-12-10T01:31:19.115Z,17.17
2017-12-10T01:33:45.979Z,19.90
2017-12-10T01:36:12.839Z,14.90
2017-12-10T01:38:39.730Z,19.02
2017-12-10T01:41:06.904Z,15.48
2017-12-10T01:43:33.788Z,14.73
2017-12-10T01:46:00.659Z,17.40
2017-12-10T01:48:27.841Z,17.80
2017-12-10T01:50:54.988Z,16.95
2017-12-10T01:53:21.875Z,16.08
2017-12-10T01:55:48.750Z,13.80
2017-12-10T01:58:15.595Z,16.65
2017-12-10T02:00:42.510Z,17.45
2017-12-10T02:03:09.431Z,17.60
2017-12-10T02:05:36.301Z,14.73
2017-12-10T02:08:03.246Z,15.85
2017-12-10T02:10:30.139Z,17.83
2017-12-10T02:12:56.998Z,19.08
2017-12-10T02:15:23.895Z,16.27
2017-12-10T02:17:50.743Z,18.00
2017-12-10T02:20:17.591Z,17.90
2017-12-10T02:22:44.537Z,17.58
2017-12-10T02:25:11.429Z,18.40
2017-12-10T02:27:38.660Z,19.30
2017-12-10T02:30:05.561Z,16.50
2017-12-10T02:32:32.435Z,20.08
2017-12-10T02:34:59.332Z,17.17
2017-12-10T02:37:26.208Z,17.95
2017-12-10T02:39:53.072Z,18.80
2017-12-10T02:42:19.977Z,20.83
2017-12-10T02:44:46.860Z,18.45
2017-12-10T02:47:13.752Z,20.55
2017-12-10T02:49:40.964Z,19.55
2017-12-10T02:52:07.841Z,18.12
2017-12-10T02:54:34.727Z,19.45
2017-12-10T02:57:01.604Z,19.67
2017-12-10T02:59:28.856Z,18.42
2017-12-10T03:01:56.015Z,21.73
2017-12-10T03:04:22.898Z,19.27
2017-12-10T03:06:49.756Z,20.25
2017-12-10T03:09:16.935Z,24.73
2017-12-10T03:11:43.825Z,19.62
2017-12-10T03:14:10.715Z,19.23
2017-12-10T03:16:37.584Z,22.35
2017-12-10T03:19:04.460Z,19.62
2017-12-10T03:21:31.353Z,18.77
2017-12-10T03:23:58.208Z,18.05
2017-12-10T03:26:25.200Z,19.67
2017-12-10T03:28:52.100Z,17.92
2017-12-10T03:31:19.005Z,20.50
2017-12-10T03:33:45.851Z,18.55
2017-12-10T03:36:12.735Z,18.90
2017-12-10T03:38:39.876Z,19.15
2017-12-10T03:41:06.743Z,18.77
2017-12-10T03:43:33.634Z,20.08
2017-12-10T03:46:00.495Z,19.52
2017-12-10T03:48:27.384Z,22.08
2017-12-10T03:50:54.288Z,23.80
2017-12-10T03:53:21.167Z,18.10
2017-12-10T03:55:48.044Z,18.73
2017-12-10T03:58:14.922Z,18.92
2017-12-10T04:00:42.081Z,20.90
2017-12-10T04:03:08.923Z,19.40
2017-12-10T04:05:35.818Z,20.73
2017-12-10T04:08:02.725Z,21.67
2017-12-10T04:10:29.603Z,18.77
2017-12-10T04:12:56.538Z,23.23
2017-12-10T04:15:23.404Z,20.88
2017-12-10T04:17:50.491Z,20.25
2017-12-10T04:20:17.405Z,20.48
2017-12-10T04:22:44.231Z,18.10
2017-12-10T04:25:11.130Z,17.85
2017-12-10T04:27:38.273Z,21.97
2017-12-10T04:30:05.139Z,16.05
2017-12-10T04:32:31.971Z,18.55
2017-12-10T04:34:58.861Z,19.65
2017-12-10T04:37:25.710Z,17.00
2017-12-10T04:39:52.563Z,17.60
2017-12-10T04:42:19.465Z,22.60
2017-12-10T04:44:46.298Z,19.12
2017-12-10T04:47:13.432Z,21.95
2017-12-10T04:49:40.355Z,22.00
2017-12-10T04:52:07.524Z,17.10
2017-12-10T04:54:34.367Z,18.95
2017-12-10T04:57:01.255Z,18.92
2017-12-10T04:59:28.468Z,18.33
2017-12-10T05:01:55.623Z,15.10
2017-12-10T05:04:22.544Z,22.00
2017-12-10T05:06:49.434Z,18.30
2017-12-10T05:09:16.318Z,18.40
2017-12-10T05:11:43.604Z,17.75
2017-12-10T05:14:10.469Z,17.97
2017-12-10T05:16:37.332Z,20.58
2017-12-10T05:19:04.256Z,19.10
2017-12-10T05:21:31.092Z,19.63
2017-12-10T05:23:57.985Z,16.97
2017-12-10T05:26:24.887Z,17.33
2017-12-10T05:28:51.772Z,17.40
2017-12-10T05:31:18.645Z,16.53
2017-12-10T05:33:45.515Z,17.93
2017-12-10T05:36:12.368Z,14.50
2017-12-10T05:38:39.489Z,17.90
2017-12-10T05:41:06.412Z,18.52
2017-12-10T05:43:33.284Z,19.35
2017-12-10T05:46:00.796Z,16.62
2017-12-10T05:48:27.988Z,17.12
2017-12-10T05:50:54.868Z,17.23
2017-12-10T05:53:21.707Z,16.95
2017-12-10T05:55:48.573Z,18.25
2017-12-10T05:58:15.420Z,19.70
2017-12-10T06:00:42.284Z,21.87
2017-12-10T06:03:09.461Z,19.20
2017-12-10T06:05:36.320Z,17.58
2017-12-10T06:08:03.453Z,20.70
2017-12-10T06:10:30.606Z,18.48
2017-12-10T06:12:57.451Z,17.40
2017-12-10T06:15:24.320Z,21.17
2017-12-10T06:17:51.221Z,18.98
2017-12-10T06:20:18.128Z,17.15
2017-12-10T06:22:45.026Z,16.90
2017-12-10T06:25:11.921Z,19.40
2017-12-10T06:27:38.797Z,21.33
2017-12-10T06:30:05.700Z,17.43
2017-12-10T06:32:32.612Z,20.37
2017-12-10T06:35:02.929Z,17.83
2017-12-10T06:37:29.821Z,18.98
2017-12-10T06:39:56.719Z,18.87
2017-12-10T06:42:23.625Z,16.60
2017-12-10T06:44:50.480Z,18.08
2017-12-10T06:47:17.405Z,17.30
2017-12-10T06:49:44.600Z,21.42
2017-12-10T06:52:11.484Z,18.60
2017-12-10T06:54:38.595Z,18.57
2017-12-10T06:57:05.476Z,18.33
2017-12-10T06:59:32.343Z,18.62
2017-12-10T07:01:59.252Z,21.00
2017-12-10T07:04:26.081Z,20.70
2017-12-10T07:06:53.216Z,23.35
2017-12-10T07:09:20.119Z,20.62
2017-12-10T07:11:46.988Z,20.90
2017-12-10T07:14:13.843Z,19.37
2017-12-10T07:16:40.728Z,17.30
2017-12-10T07:19:07.645Z,21.20
2017-12-10T07:21:34.507Z,20.20
2017-12-10T07:24:01.409Z,19.35
2017-12-10T07:26:28.275Z,21.25
2017-12-10T07:28:55.192Z,21.05
2017-12-10T07:31:22.369Z,17.80
2017-12-10T07:33:49.252Z,23.17
2017-12-10T07:36:16.114Z,21.40
2017-12-10T07:38:43.005Z,19.77
2017-12-10T07:41:09.907Z,18.83
2017-12-10T07:43:36.755Z,20.83
2017-12-10T07:46:03.684Z,20.20
2017-12-10T07:48:30.548Z,17.53
2017-12-10T07:50:57.400Z,25.00
2017-12-10T07:53:24.326Z,18.20
2017-12-10T07:55:51.511Z,19.70
2017-12-10T07:58:18.374Z,19.02
2017-12-10T08:00:45.239Z,18.55
2017-12-10T08:03:12.100Z,17.48
2017-12-10T08:05:39.018Z,19.50
2017-12-10T08:08:05.926Z,17.17
2017-12-10T08:10:33.200Z,19.55
2017-12-10T08:13:00.121Z,18.08
2017-12-10T08:15:27.016Z,17.05
2017-12-10T08:17:54.232Z,15.98
2017-12-10T08:20:21.116Z,14.55
2017-12-10T08:22:47.971Z,21.02
2017-12-10T08:25:14.829Z,16.70
2017-12-10T08:27:41.659Z,18.60
2017-12-10T08:30:08.575Z,16.00
2017-12-10T08:32:35.404Z,17.42
2017-12-10T08:35:02.296Z,16.05
2017-12-10T08:37:29.204Z,15.88
2017-12-10T08:39:56.064Z,16.65
2017-12-10T08:42:22.910Z,16.25
2017-12-10T08:44:49.780Z,14.02
2017-12-10T08:47:16.650Z,19.77
2017-12-10T08:49:43.910Z,15.38
2017-12-10T08:52:10.829Z,15.48
2017-12-10T08:54:37.999Z,13.10
2017-12-10T08:57:04.960Z,13.27
2017-12-10T08:59:31.849Z,18.65
2017-12-10T09:01:58.812Z,16.25
2017-12-10T09:04:25.647Z,13.80
2017-12-10T09:06:52.499Z,15.73
2017-12-10T09:09:19.394Z,13.50
2017-12-10T09:11:46.264Z,15.32
2017-12-10T09:14:13.468Z,15.43
2017-12-10T09:16:40.360Z,11.50
2017-12-10T09:19:07.199Z,12.55
2017-12-10T09:21:34.124Z,14.40
2017-12-10T09:24:01.012Z,10.10
2017-12-10T09:26:28.292Z,15.27
2017-12-10T09:28:55.549Z,12.60
2017-12-10T09:31:22.383Z,12.90
2017-12-10T09:33:49.272Z,12.20
2017-12-10T09:36:16.123Z,12.57
2017-12-10T09:38:43.055Z,14.60
2017-12-10T09:41:09.934Z,11.60
2017-12-10T09:43:36.795Z,11.53
2017-12-10T09:46:03.717Z,12.93
2017-12-10T09:48:30.803Z,11.63
2017-12-10T09:50:57.720Z,10.82
2017-12-10T09:53:24.608Z,17.60
2017-12-10T09:55:51.484Z,14.70
2017-12-10T09:58:18.583Z,12.40
2017-12-10T10:00:45.457Z,10.77
2017-12-10T10:03:12.675Z,14.05
2017-12-10T10:05:39.586Z,13.62
2017-12-10T10:08:06.446Z,14.43
2017-12-10T10:10:33.279Z,13.10
2017-12-10T10:13:00.151Z,11.10
2017-12-10T10:15:27.056Z,11.15
2017-12-10T10:17:53.952Z,11.68
2017-12-10T10:20:20.853Z,11.20
2017-12-10T10:22:47.723Z,13.10
2017-12-10T10:25:14.601Z,12.63
2017-12-10T10:27:41.517Z,12.90
2017-12-10T10:30:08.412Z,15.43
2017-12-10T10:32:35.276Z,12.75
2017-12-10T10:35:02.204Z,14.93
2017-12-10T10:37:29.051Z,13.40
2017-12-10T10:39:55.937Z,14.77
2017-12-10T10:42:22.864Z,14.52
2017-12-10T10:44:49.772Z,13.35
2017-12-10T10:47:16.656Z,11.82
2017-12-10T10:49:43.580Z,14.18
2017-12-10T10:52:10.460Z,13.18
2017-12-10T10:54:37.311Z,14.05
2017-12-10T10:57:04.213Z,9.93
2017-12-10T10:59:31.032Z,12.02
2017-12-10T11:01:57.918Z,12.10
2017-12-10T11:04:25.077Z,10.98
2017-12-10T11:06:51.914Z,12.77
2017-12-10T11:09:18.976Z,13.30
2017-12-10T11:11:46.127Z,11.57
2017-12-10T11:14:13.178Z,12.70
2017-12-10T11:16:39.974Z,13.20
2017-12-10T11:19:06.786Z,11.45
2017-12-10T11:21:33.594Z,13.68
2017-12-10T11:24:00.411Z,13.95
2017-12-10T11:26:27.485Z,12.68
2017-12-10T11:28:54.335Z,12.48
2017-12-10T11:31:21.179Z,11.30
2017-12-10T11:33:48.326Z,11.27
2017-12-10T11:36:15.127Z,13.13
2017-12-10T11:38:41.967Z,12.10
2017-12-10T11:41:08.827Z,12.82
2017-12-10T11:43:35.867Z,14.60
2017-12-10T11:46:02.726Z,13.05
2017-12-10T11:48:29.576Z,11.95
2017-12-10T11:50:56.398Z,10.95
2017-12-10T11:53:23.235Z,10.88
2017-12-10T11:55:50.054Z,10.80
2017-12-10T11:58:16.895Z,10.65
2017-12-10T12:00:43.754Z,13.20
2017-12-10T12:03:10.841Z,10.60
2017-12-10T12:05:37.638Z,11.38
2017-12-10T12:08:04.475Z,11.88
2017-12-10T12:10:31.347Z,13.00
2017-12-10T12:12:58.147Z,11.45
2017-12-10T12:15:25.000Z,13.80
2017-12-10T12:17:52.119Z,12.00
2017-12-10T12:20:18.952Z,11.68
2017-12-10T12:22:45.787Z,11.98
2017-12-10T12:25:12.618Z,12.80
2017-12-10T12:27:39.458Z,11.55
2017-12-10T12:30:06.309Z,12.10
2017-12-10T12:32:33.126Z,13.38
2017-12-10T12:35:00.223Z,12.30
2017-12-10T12:37:27.271Z,10.80
2017-12-10T12:39:54.442Z,12.57
2017-12-10T12:42:21.233Z,12.90
2017-12-10T12:44:48.310Z,12.50
2017-12-10T12:47:15.131Z,14.13
2017-12-10T12:49:42.239Z,13.23
2017-12-10T12:52:09.091Z,14.68
2017-12-10T12:54:35.910Z,11.35
2017-12-10T12:57:02.745Z,14.87
2017-12-10T12:59:29.554Z,13.10
2017-12-10T13:01:56.435Z,12.10
2017-12-10T13:04:23.576Z,14.20
2017-12-10T13:06:50.619Z,12.70
2017-12-10T13:09:17.484Z,11.18
2017-12-10T13:11:44.323Z,12.77
2017-12-10T13:14:11.459Z,14.57
2017-12-10T13:16:38.284Z,13.70
2017-12-10T13:19:05.221Z,13.10
2017-12-10T13:21:32.295Z,12.93
2017-12-10T13:23:59.153Z,13.45
2017-12-10T13:26:26.182Z,12.48
2017-12-10T13:28:53.052Z,13.30
2017-12-10T13:31:19.870Z,11.63
2017-12-10T13:33:46.674Z,14.15
2017-12-10T13:36:13.498Z,14.57
2017-12-10T13:38:40.320Z,12.88
2017-12-10T13:41:08.063Z,13.23
2017-12-10T13:43:34.883Z,14.10
2017-12-10T13:46:01.743Z,25.88
2017-12-10T13:48:28.538Z,14.57
2017-12-10T13:50:55.357Z,11.70
2017-12-10T13:53:22.223Z,12.30
2017-12-10T13:55:49.073Z,11.25
2017-12-10T13:58:15.911Z,12.07
2017-12-10T14:00:42.748Z,12.93
2017-12-10T14:03:09.594Z,15.75
2017-12-10T14:05:36.416Z,12.40
2017-12-10T14:08:03.522Z,14.07
2017-12-10T14:10:30.326Z,15.00
2017-12-10T14:12:57.429Z,14.52
2017-12-10T14:15:24.581Z,13.73
2017-12-10T14:17:51.445Z,11.77
2017-12-10T14:20:18.278Z,13.62
2017-12-10T14:22:45.088Z,12.40
2017-12-10T14:25:11.886Z,14.00
2017-12-10T14:27:39.007Z,12.40
2017-12-10T14:30:05.838Z,13.40
2017-12-10T14:32:32.893Z,13.50
2017-12-10T14:34:59.713Z,12.52
2017-12-10T14:37:26.567Z,12.00
2017-12-10T14:39:53.370Z,11.68
2017-12-10T14:42:20.208Z,12.27
2017-12-10T14:44:47.420Z,11.27
2017-12-10T14:47:14.269Z,13.98
2017-12-10T14:49:41.306Z,12.07
2017-12-10T14:52:08.140Z,11.67
2017-12-10T14:54:35.106Z,10.70
2017-12-10T14:57:01.925Z,13.67
2017-12-10T14:59:28.742Z,13.57
2017-12-10T15:01:55.834Z,11.90
2017-12-10T15:04:22.634Z,11.30
2017-12-10T15:06:49.487Z,13.85
2017-12-10T15:09:16.302Z,12.68
2017-12-10T15:11:43.122Z,13.23
2017-12-10T15:14:09.969Z,12.43
2017-12-10T15:16:36.755Z,11.00
2017-12-10T15:19:03.942Z,11.35
2017-12-10T15:21:31.092Z,10.98
2017-12-10T15:23:57.902Z,13.45
2017-12-10T15:26:25.087Z,12.98
2017-12-10T15:28:51.915Z,12.52
2017-12-10T15:31:18.744Z,11.38
2017-12-10T15:33:45.561Z,14.63
2017-12-10T15:36:12.667Z,11.07
2017-12-10T15:38:39.519Z,10.75
2017-12-10T15:41:06.655Z,13.52
2017-12-10T15:43:33.516Z,19.65
2017-12-10T15:46:00.646Z,13.27
2017-12-10T15:48:27.798Z,11.80
2017-12-10T15:50:54.700Z,10.65
2017-12-10T15:53:21.749Z,10.82
2017-12-10T15:55:48.589Z,9.80
2017-12-10T15:58:15.680Z,10.00
2017-12-10T16:00:42.480Z,14.30
2017-12-10T16:03:09.294Z,12.20
2017-12-10T16:05:36.414Z,11.90
2017-12-10T16:08:03.231Z,11.98
2017-12-10T16:10:30.040Z,12.40
2017-12-10T16:12:57.155Z,10.70
2017-12-10T16:15:24.003Z,9.95
2017-12-10T16:17:50.810Z,10.65
2017-12-10T16:20:17.675Z,13.50
2017-12-10T16:22:44.551Z,10.00
2017-12-10T16:25:11.342Z,12.45
2017-12-10T16:27:38.203Z,12.15
2017-12-10T16:30:05.006Z,10.88
2017-12-10T16:32:31.793Z,11.55
2017-12-10T16:34:58.942Z,13.30
2017-12-10T16:37:26.096Z,11.80
2017-12-10T16:39:53.142Z,12.57
2017-12-10T16:42:19.965Z,11.35
2017-12-10T16:44:47.037Z,11.55
2017-12-10T16:47:13.855Z,12.57
2017-12-10T16:49:40.719Z,13.73
2017-12-10T16:52:07.586Z,11.10
2017-12-10T16:54:34.714Z,14.75
2017-12-10T16:57:01.862Z,16.15
2017-12-10T16:59:29.018Z,11.35
2017-12-10T17:01:56.168Z,12.15
2017-12-10T17:04:23.046Z,10.90
2017-12-10T17:06:49.862Z,11.87
2017-12-10T17:09:16.709Z,16.80
2017-12-10T17:11:43.847Z,11.70
2017-12-10T17:14:10.688Z,14.00
2017-12-10T17:16:37.516Z,12.68
2017-12-10T17:19:04.377Z,15.52
2017-12-10T17:21:31.194Z,16.73
2017-12-10T17:23:58.066Z,14.10
2017-12-10T17:26:25.216Z,14.00
2017-12-10T17:28:52.283Z,13.30
2017-12-10T17:31:19.114Z,14.98
2017-12-10T17:33:45.931Z,13.40
2017-12-10T17:36:12.990Z,13.45
2017-12-10T17:38:39.843Z,16.77
2017-12-10T17:41:06.699Z,13.30
2017-12-10T17:43:33.547Z,14.87
2017-12-10T17:46:00.397Z,14.75
2017-12-10T17:48:27.254Z,13.15
2017-12-10T17:50:54.357Z,16.37
2017-12-10T17:53:21.222Z,14.43
2017-12-10T17:55:48.357Z,14.32
2017-12-10T17:58:15.165Z,13.47
2017-12-10T18:00:42.248Z,14.43
2017-12-10T18:03:09.390Z,13.70
2017-12-10T18:05:36.220Z,12.20
2017-12-10T18:08:03.127Z,12.65
2017-12-10T18:10:29.995Z,13.68
2017-12-10T18:12:57.075Z,17.12
2017-12-10T18:15:23.872Z,13.50
2017-12-10T18:17:50.706Z,14.10
2017-12-10T18:20:17.559Z,13.23
2017-12-10T18:22:44.373Z,13.50
2017-12-10T18:25:11.497Z,13.88
2017-12-10T18:27:38.337Z,13.25
2017-12-10T18:30:05.486Z,13.02
2017-12-10T18:32:32.637Z,14.47
2017-12-10T18:34:59.480Z,13.65
2017-12-10T18:37:26.293Z,14.93
2017-12-10T18:39:53.139Z,19.10
2017-12-10T18:42:20.004Z,15.02
2017-12-10T18:44:46.827Z,16.08
2017-12-10T18:47:14.011Z,12.63
2017-12-10T18:49:41.050Z,11.80
2017-12-10T18:52:08.208Z,12.43
2017-12-10T18:54:35.051Z,11.75
2017-12-10T18:57:01.899Z,13.30
2017-12-10T18:59:28.740Z,13.50
2017-12-10T19:01:55.591Z,12.48
2017-12-10T19:04:22.440Z,13.30
2017-12-10T19:06:49.469Z,11.75
2017-12-10T19:09:16.327Z,13.40
2017-12-10T19:11:43.360Z,14.60
2017-12-10T19:14:10.187Z,15.70
2017-12-10T19:16:37.072Z,14.07
2017-12-10T19:19:03.892Z,14.67
2017-12-10T19:21:30.702Z,13.73
2017-12-10T19:23:57.555Z,12.87
2017-12-10T19:26:24.355Z,13.80
2017-12-10T19:28:51.215Z,16.62
2017-12-10T19:31:18.285Z,14.48
2017-12-10T19:33:45.119Z,14.55
2017-12-10T19:36:11.953Z,13.05
2017-12-10T19:38:38.802Z,14.70
2017-12-10T19:41:05.622Z,15.30
2017-12-10T19:43:32.731Z,14.10
2017-12-10T19:45:59.617Z,14.20
2017-12-10T19:48:26.754Z,13.65
2017-12-10T19:50:53.588Z,13.48
2017-12-10T19:53:20.479Z,13.00
2017-12-10T19:55:47.315Z,13.55
2017-12-10T19:58:14.187Z,14.63
2017-12-10T20:00:41.018Z,15.60
2017-12-10T20:03:08.196Z,13.85
2017-12-10T20:05:35.020Z,15.98
2017-12-10T20:08:01.862Z,15.55
2017-12-10T20:10:28.678Z,15.57
2017-12-10T20:12:55.482Z,15.05
2017-12-10T20:15:22.349Z,16.33
2017-12-10T20:17:49.175Z,16.95
2017-12-10T20:20:15.982Z,16.17
2017-12-10T20:22:42.857Z,16.37
2017-12-10T20:25:09.646Z,16.77
2017-12-10T20:27:36.724Z,16.50
2017-12-10T20:30:03.588Z,16.90
2017-12-10T20:32:30.663Z,16.25
2017-12-10T20:34:57.640Z,13.25
2017-12-10T20:37:24.819Z,14.65
2017-12-10T20:39:51.655Z,13.10
2017-12-10T20:42:18.702Z,13.52
2017-12-10T20:44:45.563Z,13.95
2017-12-10T20:47:12.382Z,14.75
2017-12-10T20:49:39.165Z,14.18
2017-12-10T20:52:06.029Z,14.70
2017-12-10T20:54:32.820Z,14.57
2017-12-10T20:56:59.866Z,15.43
2017-12-10T20:59:27.014Z,13.93
2017-12-10T21:01:53.802Z,13.07
2017-12-10T21:04:20.911Z,15.40
2017-12-10T21:06:47.772Z,12.15
2017-12-10T21:09:14.582Z,14.60
2017-12-10T21:11:41.747Z,14.32
2017-12-10T21:14:08.554Z,13.60
2017-12-10T21:16:35.364Z,12.68
2017-12-10T21:19:02.716Z,12.55
2017-12-10T21:21:29.938Z,15.50
2017-12-10T21:23:57.094Z,13.35
2017-12-10T21:26:24.126Z,13.82
2017-12-10T21:28:51.291Z,13.90
2017-12-10T21:31:18.132Z,15.13
2017-12-10T21:33:44.959Z,15.40
2017-12-10T21:36:12.129Z,15.13
2017-12-10T21:38:39.275Z,14.77
2017-12-10T21:41:06.061Z,14.77
2017-12-10T21:43:32.932Z,14.63
2017-12-10T21:45:59.783Z,15.75
2017-12-10T21:48:26.846Z,15.45
2017-12-10T21:50:53.678Z,15.27
2017-12-10T21:53:20.699Z,15.27
2017-12-10T21:55:47.541Z,15.55
2017-12-10T21:58:14.385Z,14.63
2017-12-10T22:00:41.195Z,14.57
2017-12-10T22:03:08.036Z,15.15
2017-12-10T22:05:35.158Z,13.77
2017-12-10T22:08:02.019Z,15.55
2017-12-10T22:10:28.840Z,14.57
2017-12-10T22:12:55.682Z,16.37
2017-12-10T22:15:22.507Z,14.30
2017-12-10T22:17:49.352Z,15.50
2017-12-10T22:20:16.426Z,14.73
2017-12-10T22:22:43.578Z,14.38
2017-12-10T22:25:10.378Z,15.32
2017-12-10T22:27:37.462Z,14.80
2017-12-10T22:30:04.287Z,13.75
2017-12-10T22:32:31.363Z,15.85
2017-12-10T22:34:58.227Z,14.40
2017-12-10T22:37:25.051Z,15.25
2017-12-10T22:39:51.911Z,15.43
2017-12-10T22:42:19.043Z,15.15
2017-12-10T22:44:45.866Z,14.10
2017-12-10T22:47:12.702Z,15.65
2017-12-10T22:49:39.607Z,15.13
2017-12-10T22:52:06.434Z,15.43
2017-12-10T22:54:33.218Z,14.02
2017-12-10T22:57:00.303Z,14.43
2017-12-10T22:59:27.139Z,13.52
2017-12-10T23:01:53.926Z,14.80
2017-12-10T23:04:21.040Z,14.80
2017-12-10T23:06:47.920Z,13.62
2017-12-10T23:09:14.713Z,15.60
2017-12-10T23:11:41.597Z,13.98
2017-12-10T23:14:08.397Z,13.80
2017-12-10T23:16:35.215Z,12.65
2017-12-10T23:19:02.067Z,14.73
2017-12-10T23:21:28.917Z,14.10
2017-12-10T23:23:55.988Z,13.55
2017-12-10T23:26:23.139Z,13.65
2017-12-10T23:28:49.952Z,13.60
2017-12-10T23:31:16.791Z,12.85
2017-12-10T23:33:43.613Z,12.85
2017-12-10T23:36:10.456Z,13.43
2017-12-10T23:38:37.295Z,12.25
2017-12-10T23:41:04.403Z,13.30
2017-12-10T23:43:31.213Z,13.00
2017-12-10T23:45:58.395Z,11.95
2017-12-10T23:48:25.548Z,14.23
2017-12-10T23:50:52.402Z,13.95
2017-12-10T23:53:19.199Z,12.60
2017-12-10T23:55:46.014Z,12.75
2017-12-10T23:58:12.832Z,13.23
